UNNT/OVB METAR and TAF weather

Enter ICAO airport designator
Station Type Date Time Source
UNNT METAR 2019/10/23 02:30 UTC NOAA

UNNT 230230Z 18006MPS CAVOK M01/M05 Q1020 R25/090070 R34/090070 NOSIG RMK QFE755/1007


Station Type Date Time Source
UNNT Decoded METAR 2019/10/23 02:30 UTC NOAA

Station name not available
Oct 22, 2019 - 10:30 PM EDT / 2019.10.23 0230 UTC
Wind: from the S (180 degrees) at 13 MPH (12 KT):0
Visibility: greater than 7 mile(s):0
Temperature: 30 F (-1 C)
Windchill: 19 F (-7 C):1
Dew Point: 23 F (-5 C)
Relative Humidity: 74%
Pressure (altimeter): 30.12 in. Hg (1020 hPa)
ob: UNNT 230230Z 18006MPS CAVOK M01/M05 Q1020 R25/090070 R34/090070 NOSIG RMK QFE755/1007
cycle: 2

Station Type Date Time Source
UNNT TAF 2019/10/23 03:21 UTC NOAA

TAF UNNT 230200Z 2303/2403 18007G15MPS 9999 BKN050CB
FM230900 21008G15MPS 9999 BKN030CB
TEMPO 2312/2403 3100 -SHSNRA BKN005 BKN011CB

Example: see airport list